createdAt,value
2023-05-19T00:03:55.609Z,78.4
2023-05-19T00:13:55.572Z,79.2
2023-05-19T00:23:55.572Z,79.8
2023-05-19T00:33:55.532Z,79.4
2023-05-19T00:43:55.487Z,79.4
2023-05-19T00:53:55.478Z,80.2
2023-05-19T01:03:55.431Z,81
2023-05-19T01:13:55.395Z,81.6
2023-05-19T01:23:55.379Z,82.2
2023-05-19T01:33:55.356Z,82.6
2023-05-19T01:43:55.318Z,82.8
2023-05-19T01:53:55.293Z,83
2023-05-19T02:03:55.264Z,84.8
2023-05-19T02:13:55.225Z,85.8
2023-05-19T02:23:55.207Z,85.6
2023-05-19T02:33:55.186Z,85
2023-05-19T02:43:55.147Z,86.2
2023-05-19T02:53:55.123Z,87.2
2023-05-19T03:03:55.104Z,88
2023-05-19T03:13:55.064Z,88
2023-05-19T03:23:55.053Z,87.4
2023-05-19T03:33:55.027Z,85.8
2023-05-19T03:43:55.002Z,84.2
2023-05-19T03:53:54.958Z,83
2023-05-19T04:03:54.947Z,81.6
2023-05-19T04:13:54.968Z,83.2
2023-05-19T04:23:54.945Z,84.4
2023-05-19T04:33:54.864Z,85.2
2023-05-19T04:43:54.839Z,85.2
2023-05-19T04:53:54.806Z,85.4
2023-05-19T05:03:54.774Z,84.8
2023-05-19T05:13:54.736Z,84.4
2023-05-19T05:23:54.706Z,83.8
2023-05-19T05:33:54.677Z,82
2023-05-19T05:43:54.639Z,78.4
2023-05-19T05:53:54.633Z,74.2
2023-05-19T06:03:54.582Z,69.4
2023-05-19T06:13:54.591Z,68
2023-05-19T06:23:54.532Z,65.6
2023-05-19T06:33:54.522Z,63.6
2023-05-19T06:43:54.500Z,60.8
2023-05-19T06:53:54.459Z,59.6
2023-05-19T07:03:54.483Z,59.4
2023-05-19T07:13:54.373Z,56.6
2023-05-19T07:23:54.370Z,56.4
2023-05-19T07:33:54.320Z,55.6
2023-05-19T07:43:54.288Z,54.8
2023-05-19T07:53:54.329Z,54.6
2023-05-19T08:03:54.268Z,53.6
2023-05-19T08:13:54.172Z,53
2023-05-19T08:23:54.167Z,51.8
2023-05-19T08:33:54.186Z,51.8
2023-05-19T08:43:54.080Z,51
2023-05-19T08:53:54.251Z,49
2023-05-19T09:13:54.167Z,50.6
2023-05-19T09:23:54.052Z,50.2
2023-05-19T09:33:53.912Z,46.8
2023-05-19T09:43:54.082Z,45.4
2023-05-19T09:53:53.950Z,45.4
2023-05-19T10:03:54.023Z,46.6
2023-05-19T10:13:53.995Z,46.6
2023-05-19T10:23:53.957Z,45.6
2023-05-19T10:33:53.873Z,45
2023-05-19T10:43:53.847Z,44.6
2023-05-19T10:53:53.650Z,43.6
2023-05-19T11:03:53.754Z,42.8
2023-05-19T11:13:53.583Z,42.2
2023-05-19T11:23:53.681Z,41.2
2023-05-19T11:33:53.495Z,40.4
2023-05-19T11:43:53.522Z,40.6
2023-05-19T11:53:53.589Z,40.8
2023-05-19T12:03:53.581Z,37.2
2023-05-19T12:13:53.413Z,38.8
2023-05-19T12:23:53.521Z,37.8
2023-05-19T12:33:53.417Z,38
2023-05-19T12:43:53.471Z,38.4
2023-05-19T12:53:53.321Z,38.4
2023-05-19T13:03:53.194Z,39.2
2023-05-19T13:13:53.162Z,38.2
2023-05-19T13:23:53.256Z,36.8
2023-05-19T13:33:53.194Z,37.2
2023-05-19T13:43:53.209Z,36.6
2023-05-19T13:53:53.201Z,36
2023-05-19T14:03:53.120Z,36
2023-05-19T14:13:53.006Z,36.8
2023-05-19T14:23:53.011Z,36.2
2023-05-19T14:33:52.954Z,38.2
2023-05-19T14:43:52.958Z,36.4
2023-05-19T14:53:52.807Z,35.4
2023-05-19T15:03:52.864Z,36
2023-05-19T15:13:52.768Z,36.2
2023-05-19T15:23:52.700Z,36.4
2023-05-19T15:33:52.825Z,35
2023-05-19T15:43:52.725Z,33.6
2023-05-19T15:53:52.608Z,34.6
2023-05-19T16:03:52.671Z,36.2
2023-05-19T16:13:52.708Z,34.4
2023-05-19T16:23:52.495Z,33.8
2023-05-19T16:33:52.634Z,35.8
2023-05-19T16:43:52.493Z,36.4
2023-05-19T16:53:52.556Z,38
2023-05-19T17:03:52.369Z,39.2
2023-05-19T17:13:52.319Z,39
2023-05-19T17:23:52.316Z,38.8
2023-05-19T17:33:52.423Z,37.8
2023-05-19T17:43:52.333Z,40
2023-05-19T17:53:52.375Z,41.2
2023-05-19T18:03:52.196Z,42
2023-05-19T18:13:52.126Z,42.6
2023-05-19T18:23:52.350Z,43.2
2023-05-19T18:33:52.177Z,43.8
2023-05-19T18:43:52.112Z,45.4
2023-05-19T18:53:52.026Z,46.4
2023-05-19T19:03:51.956Z,47.2
2023-05-19T19:13:52.041Z,48.4
2023-05-19T19:23:52.020Z,49.6
2023-05-19T19:33:51.968Z,52
2023-05-19T19:43:51.904Z,54
2023-05-19T19:53:51.936Z,54.8
2023-05-19T20:03:51.923Z,55.6
2023-05-19T20:13:51.743Z,57
2023-05-19T20:23:51.726Z,58.2
2023-05-19T20:33:51.784Z,58.6
2023-05-19T20:43:51.774Z,59
2023-05-19T20:53:51.617Z,59.4
2023-05-19T21:03:51.538Z,59.8
2023-05-19T21:13:51.534Z,60.2
2023-05-19T21:23:51.673Z,60.8
2023-05-19T21:33:51.653Z,62.6
2023-05-19T21:43:51.644Z,62.8
2023-05-19T21:53:51.583Z,63.4
2023-05-19T22:03:51.472Z,63.8
2023-05-19T22:13:51.509Z,63.8
2023-05-19T22:23:51.364Z,63.8
2023-05-19T22:33:51.249Z,63.6
2023-05-19T22:43:51.417Z,63.2
2023-05-19T22:53:51.361Z,63.8
2023-05-19T23:03:51.236Z,64.4
2023-05-19T23:13:51.375Z,64.6
2023-05-19T23:23:51.134Z,64.6
2023-05-19T23:33:51.249Z,64.4
2023-05-19T23:43:51.074Z,65
2023-05-19T23:53:51.223Z,65
